createdAt,value
2022-08-12T00:02:04.248Z,15.02
2022-08-12T00:04:53.215Z,14.98
2022-08-12T00:07:39.412Z,14.94
2022-08-12T00:10:26.273Z,14.75
2022-08-12T00:13:12.656Z,15.03
2022-08-12T00:16:02.153Z,14.78
2022-08-12T00:18:48.161Z,15.08
2022-08-12T00:21:37.412Z,15.05
2022-08-12T00:24:24.135Z,15.03
2022-08-12T00:27:09.672Z,15.01
2022-08-12T00:29:55.477Z,14.97
2022-08-12T00:32:48.997Z,14.98
2022-08-12T00:35:42.926Z,14.93
2022-08-12T00:38:31.831Z,14.94
2022-08-12T00:41:18.031Z,14.90
2022-08-12T00:43:47.821Z,14.86
2022-08-12T00:46:36.469Z,14.71
2022-08-12T00:49:05.646Z,14.82
2022-08-12T00:51:48.111Z,14.85
2022-08-12T00:54:18.413Z,14.79
2022-08-12T00:56:51.231Z,14.80
2022-08-12T00:59:19.955Z,14.75
2022-08-12T01:02:02.350Z,14.57
2022-08-12T01:04:57.296Z,14.80
2022-08-12T01:07:43.596Z,14.83
2022-08-12T01:10:32.952Z,14.81
2022-08-12T01:13:18.599Z,14.86
2022-08-12T01:15:50.569Z,14.92
2022-08-12T01:18:19.412Z,14.92
2022-08-12T01:20:51.481Z,14.96
2022-08-12T01:23:38.054Z,14.98
2022-08-12T01:26:10.147Z,14.88
2022-08-12T01:28:39.932Z,14.81
2022-08-12T01:31:09.788Z,14.78
2022-08-12T01:33:45.320Z,14.72
2022-08-12T01:36:15.562Z,14.65
2022-08-12T01:38:44.617Z,14.27
2022-08-12T01:41:16.613Z,14.42
2022-08-12T01:43:45.654Z,14.42
2022-08-12T01:46:25.611Z,14.44
2022-08-12T01:49:04.826Z,14.49
2022-08-12T01:52:20.745Z,14.48
2022-08-12T01:54:30.202Z,14.44
2022-08-12T01:57:11.004Z,14.39
2022-08-12T01:59:59.270Z,14.41
2022-08-12T02:02:39.602Z,14.35
2022-08-12T02:05:35.414Z,14.37
2022-08-12T02:08:33.159Z,14.36
2022-08-12T02:11:21.525Z,14.34
2022-08-12T02:14:07.640Z,14.30
2022-08-12T02:16:51.933Z,13.98
2022-08-12T02:19:37.273Z,14.14
2022-08-12T02:22:15.451Z,14.09
2022-08-12T02:24:46.026Z,14.00
2022-08-12T02:27:15.464Z,14.01
2022-08-12T02:29:45.236Z,14.03
2022-08-12T02:32:13.577Z,14.03
2022-08-12T02:34:41.948Z,14.06
2022-08-12T02:37:10.646Z,14.08
2022-08-12T02:39:41.489Z,14.03
2022-08-12T02:42:12.039Z,14.04
2022-08-12T02:44:42.933Z,13.99
2022-08-12T02:47:58.751Z,13.98
2022-08-12T02:50:05.122Z,13.73
2022-08-12T02:52:35.019Z,13.86
2022-08-12T02:55:12.858Z,13.87
2022-08-12T02:57:57.405Z,13.69
2022-08-12T03:00:28.796Z,13.78
2022-08-12T03:02:59.906Z,13.76
2022-08-12T03:05:28.140Z,13.68
2022-08-12T03:08:00.267Z,13.63
2022-08-12T03:10:37.194Z,13.58
2022-08-12T03:13:08.288Z,13.49
2022-08-12T03:15:37.773Z,13.39
2022-08-12T03:18:26.185Z,13.45
2022-08-12T03:20:58.298Z,13.51
2022-08-12T03:23:29.646Z,13.48
2022-08-12T03:26:00.747Z,13.48
2022-08-12T03:28:48.510Z,13.56
2022-08-12T03:31:16.844Z,13.62
2022-08-12T03:34:01.827Z,13.68
2022-08-12T03:36:33.625Z,13.85
2022-08-12T03:39:17.081Z,13.93
2022-08-12T03:41:50.179Z,13.94
2022-08-12T03:44:42.797Z,14.00
2022-08-12T03:47:32.018Z,14.06
2022-08-12T03:50:18.911Z,14.05
2022-08-12T03:53:04.573Z,13.99
2022-08-12T03:55:50.173Z,13.84
2022-08-12T03:58:35.710Z,14.11
2022-08-12T04:01:04.092Z,14.15
2022-08-12T04:03:50.818Z,14.19
2022-08-12T04:06:35.229Z,14.18
2022-08-12T04:09:16.037Z,14.21
2022-08-12T04:12:03.090Z,14.17
2022-08-12T04:14:31.850Z,14.01
2022-08-12T04:17:00.073Z,13.93
2022-08-12T04:19:28.891Z,13.85
2022-08-12T04:22:01.139Z,13.80
2022-08-12T04:24:30.987Z,13.85
2022-08-12T04:26:59.291Z,13.90
2022-08-12T04:30:30.176Z,13.95
2022-08-12T04:32:16.740Z,13.98
2022-08-12T04:34:45.199Z,14.03
2022-08-12T04:37:16.083Z,14.02
2022-08-12T04:39:45.821Z,14.00
2022-08-12T04:42:14.307Z,13.97
2022-08-12T04:44:44.511Z,13.82
2022-08-12T04:47:13.343Z,14.05
2022-08-12T04:49:42.010Z,14.04
2022-08-12T04:52:11.444Z,14.07
2022-08-12T04:54:41.063Z,14.10
2022-08-12T04:57:09.850Z,14.15
2022-08-12T04:59:48.191Z,14.23
2022-08-12T05:02:21.653Z,14.31
2022-08-12T05:05:00.631Z,14.36
2022-08-12T05:07:29.657Z,14.40
2022-08-12T05:10:02.074Z,14.48
2022-08-12T05:12:37.526Z,14.51
2022-08-12T05:15:19.538Z,14.51
2022-08-12T05:17:55.667Z,14.54
2022-08-12T05:20:26.137Z,14.53
2022-08-12T05:23:12.688Z,14.49
2022-08-12T05:25:43.613Z,14.54
2022-08-12T05:28:13.135Z,14.61
2022-08-12T05:30:42.697Z,14.65
2022-08-12T05:33:12.226Z,14.68
2022-08-12T05:35:43.167Z,14.70
2022-08-12T05:38:30.332Z,14.78
2022-08-12T05:41:00.463Z,14.82
2022-08-12T05:43:29.049Z,14.86
2022-08-12T05:45:57.596Z,14.94
2022-08-12T05:48:25.738Z,14.96
2022-08-12T05:50:53.871Z,15.03
2022-08-12T05:53:22.113Z,15.04
2022-08-12T05:55:50.304Z,15.12
2022-08-12T05:58:20.633Z,14.93
2022-08-12T06:00:48.824Z,15.18
2022-08-12T06:03:19.765Z,15.17
2022-08-12T06:05:55.071Z,15.22
2022-08-12T06:08:24.479Z,15.26
2022-08-12T06:10:53.091Z,15.29
2022-08-12T06:13:27.945Z,15.42
2022-08-12T06:15:57.311Z,15.51
2022-08-12T06:18:29.730Z,15.74
2022-08-12T06:21:01.880Z,15.95
2022-08-12T06:23:31.830Z,16.14
2022-08-12T06:26:00.754Z,16.25
2022-08-12T06:28:31.049Z,16.34
2022-08-12T06:31:24.790Z,16.38
2022-08-12T06:33:57.664Z,16.55
2022-08-12T06:36:33.589Z,16.73
2022-08-12T06:39:02.212Z,16.89
2022-08-12T06:42:27.752Z,16.96
2022-08-12T06:44:37.600Z,17.00
2022-08-12T06:47:06.102Z,17.06
2022-08-12T06:49:36.776Z,16.97
2022-08-12T06:52:07.464Z,16.98
2022-08-12T06:54:35.589Z,16.90
2022-08-12T06:57:56.880Z,16.99
2022-08-12T06:59:53.498Z,17.33
2022-08-12T07:02:23.038Z,17.43
2022-08-12T07:04:55.034Z,17.58
2022-08-12T07:07:23.224Z,17.87
2022-08-12T07:10:04.048Z,18.15
2022-08-12T07:12:36.967Z,18.16
2022-08-12T07:15:08.381Z,18.30
2022-08-12T07:17:39.151Z,18.54
2022-08-12T07:20:29.526Z,18.65
2022-08-12T07:23:00.385Z,18.60
2022-08-12T07:25:40.648Z,18.61
2022-08-12T07:28:16.400Z,18.37
2022-08-12T07:30:48.586Z,18.57
2022-08-12T07:33:18.018Z,18.53
2022-08-12T07:45:13.593Z,18.79
2022-08-12T07:47:43.958Z,19.05
2022-08-12T07:50:13.739Z,19.06
2022-08-12T07:52:43.938Z,19.44
2022-08-12T07:55:12.856Z,19.45
2022-08-12T07:57:50.352Z,19.45
2022-08-12T08:00:18.941Z,19.75
2022-08-12T08:02:49.378Z,19.98
2022-08-12T08:05:18.907Z,20.04
2022-08-12T08:07:48.738Z,19.81
2022-08-12T08:10:18.420Z,19.60
2022-08-12T08:12:56.401Z,20.08
2022-08-12T08:15:51.087Z,20.40
2022-08-12T08:18:26.339Z,20.47
2022-08-12T08:20:56.693Z,20.37
2022-08-12T08:23:55.583Z,20.35
2022-08-12T08:26:27.147Z,20.61
2022-08-12T08:28:55.603Z,20.57
2022-08-12T08:31:23.766Z,20.47
2022-08-12T08:34:09.118Z,20.31
2022-08-12T08:36:44.036Z,20.49
2022-08-12T08:39:17.028Z,20.46
2022-08-12T08:42:19.186Z,20.75
2022-08-12T08:44:50.354Z,20.93
2022-08-12T08:47:26.993Z,21.17
2022-08-12T08:50:01.315Z,21.26
2022-08-12T08:52:39.388Z,21.31
2022-08-12T08:55:10.520Z,21.20
2022-08-12T08:57:43.875Z,21.22
2022-08-12T09:00:16.487Z,21.41
2022-08-12T09:02:49.190Z,21.37
2022-08-12T09:05:43.204Z,21.42
2022-08-12T09:08:23.135Z,21.44
2022-08-12T09:12:07.633Z,21.75
2022-08-12T09:14:18.665Z,21.81
2022-08-12T09:16:50.157Z,22.14
2022-08-12T09:19:27.308Z,22.53
2022-08-12T09:22:00.167Z,22.69
2022-08-12T09:24:30.923Z,22.81
2022-08-12T09:27:00.115Z,23.14
2022-08-12T09:30:12.040Z,23.31
2022-08-12T09:32:56.161Z,23.56
2022-08-12T09:35:21.988Z,23.79
2022-08-12T09:37:58.661Z,23.26
2022-08-12T09:40:56.140Z,23.01
2022-08-12T09:43:32.627Z,23.29
2022-08-12T09:46:06.525Z,23.49
2022-08-12T09:48:56.384Z,23.91
2022-08-12T09:51:37.618Z,24.04
2022-08-12T09:54:32.645Z,24.45
2022-08-12T09:57:03.887Z,24.46
2022-08-12T10:00:15.330Z,24.65
2022-08-12T10:02:45.121Z,24.48
2022-08-12T10:05:20.628Z,24.26
2022-08-12T10:07:49.582Z,23.82
2022-08-12T10:10:22.340Z,23.36
2022-08-12T10:13:09.076Z,23.88
2022-08-12T10:16:02.978Z,24.04
2022-08-12T10:18:27.547Z,23.82
2022-08-12T10:20:57.137Z,24.26
2022-08-12T10:23:39.392Z,24.31
2022-08-12T10:26:36.607Z,24.34
2022-08-12T10:30:11.866Z,24.53
2022-08-12T10:32:20.815Z,25.22
2022-08-12T10:34:53.384Z,24.93
2022-08-12T10:38:34.201Z,24.46
2022-08-12T10:40:20.430Z,24.96
2022-08-12T10:43:08.883Z,24.65
2022-08-12T10:45:38.388Z,24.28
2022-08-12T10:48:21.768Z,24.50
2022-08-12T10:51:03.344Z,25.05
2022-08-12T10:53:46.769Z,25.22
2022-08-12T10:56:16.215Z,25.02
2022-08-12T10:58:47.969Z,25.29
2022-08-12T11:01:50.143Z,25.25
2022-08-12T11:04:19.436Z,24.92
2022-08-12T11:07:05.631Z,25.18
2022-08-12T11:10:00.355Z,25.36
2022-08-12T11:12:55.020Z,25.29
2022-08-12T11:16:04.094Z,25.49
2022-08-12T11:18:46.118Z,25.68
2022-08-12T11:21:58.504Z,25.81
2022-08-12T11:24:51.601Z,26.42
2022-08-12T11:27:21.971Z,26.64
2022-08-12T11:30:06.518Z,26.72
2022-08-12T11:32:39.196Z,26.98
2022-08-12T11:35:09.253Z,26.97
2022-08-12T11:37:58.467Z,26.73
2022-08-12T11:40:28.489Z,26.42
2022-08-12T11:43:00.684Z,26.35
2022-08-12T11:45:46.906Z,26.50
2022-08-12T11:48:17.095Z,26.48
2022-08-12T11:50:46.960Z,26.33
2022-08-12T11:53:59.519Z,25.81
2022-08-12T11:56:06.529Z,26.20
2022-08-12T12:01:02.698Z,26.64
2022-08-12T12:02:02.557Z,26.07
2022-08-12T12:04:22.656Z,26.49
2022-08-12T12:07:06.995Z,26.61
2022-08-12T12:09:52.608Z,26.81
2022-08-12T12:12:23.426Z,26.44
2022-08-12T12:14:55.010Z,26.44
2022-08-12T12:17:24.809Z,26.57
2022-08-12T12:19:55.194Z,26.21
2022-08-12T12:22:30.805Z,25.65
2022-08-12T12:25:12.598Z,25.59
2022-08-12T12:28:05.162Z,25.19
2022-08-12T12:30:34.972Z,25.97
2022-08-12T12:33:03.187Z,26.31
2022-08-12T12:36:05.964Z,26.52
2022-08-12T12:38:25.465Z,25.86
2022-08-12T12:40:54.156Z,25.62
2022-08-12T12:43:28.929Z,25.73
2022-08-12T12:46:10.669Z,25.58
2022-08-12T12:48:44.078Z,25.64
2022-08-12T12:51:48.162Z,25.02
2022-08-12T12:54:10.551Z,24.61
2022-08-12T12:56:42.722Z,24.83
2022-08-12T12:59:34.970Z,25.15
2022-08-12T13:02:02.098Z,25.17
2022-08-12T13:04:37.159Z,25.05
2022-08-12T13:07:08.066Z,25.03
2022-08-12T13:09:37.002Z,25.19
2022-08-12T13:12:08.991Z,25.25
2022-08-12T13:14:39.589Z,25.34
2022-08-12T13:17:09.724Z,25.03
2022-08-12T13:19:46.820Z,25.15
2022-08-12T13:22:21.414Z,25.30
2022-08-12T13:24:55.721Z,25.00
2022-08-12T13:27:35.061Z,25.42
2022-08-12T13:30:13.061Z,25.15
2022-08-12T13:32:42.715Z,25.45
2022-08-12T13:35:19.730Z,25.63
2022-08-12T13:37:55.217Z,25.38
2022-08-12T13:40:25.018Z,25.34
2022-08-12T13:42:58.021Z,25.37
2022-08-12T13:45:26.977Z,25.22
2022-08-12T13:48:00.047Z,25.06
2022-08-12T13:50:32.632Z,25.02
2022-08-12T13:53:23.163Z,25.28
2022-08-12T13:55:59.667Z,25.26
2022-08-12T13:58:32.770Z,25.17
2022-08-12T14:01:05.766Z,24.61
2022-08-12T14:03:51.430Z,24.94
2022-08-12T14:06:21.670Z,25.07
2022-08-12T14:08:56.430Z,24.96
2022-08-12T14:11:27.838Z,25.11
2022-08-12T14:14:06.127Z,25.01
2022-08-12T14:16:49.046Z,24.78
2022-08-12T14:19:22.366Z,24.81
2022-08-12T14:22:00.501Z,24.90
2022-08-12T14:24:40.918Z,25.18
2022-08-12T14:27:11.021Z,25.26
2022-08-12T14:30:04.869Z,25.70
2022-08-12T14:32:34.610Z,25.82
2022-08-12T14:35:09.417Z,25.23
2022-08-12T14:37:57.414Z,25.77
2022-08-12T14:40:29.598Z,26.12
2022-08-12T14:42:58.861Z,26.18
2022-08-12T14:45:45.401Z,26.54
2022-08-12T14:48:18.635Z,26.87
2022-08-12T14:51:02.821Z,27.21
2022-08-12T14:55:18.225Z,27.10
2022-08-12T14:59:57.446Z,27.08
2022-08-12T15:02:21.742Z,26.37
2022-08-12T15:04:59.591Z,26.16
2022-08-12T15:07:33.609Z,26.10
2022-08-12T15:10:31.725Z,26.31
2022-08-12T15:13:07.338Z,26.33
2022-08-12T15:15:45.542Z,26.42
2022-08-12T15:18:21.086Z,26.59
2022-08-12T15:20:51.431Z,26.45
2022-08-12T15:23:21.629Z,26.65
2022-08-12T15:26:00.059Z,26.42
2022-08-12T15:28:34.402Z,26.35
2022-08-12T15:31:02.735Z,26.39
2022-08-12T15:33:44.782Z,26.37
2022-08-12T15:36:14.550Z,26.23
2022-08-12T15:38:47.956Z,25.99
2022-08-12T15:41:16.497Z,25.86
2022-08-12T15:44:17.026Z,25.73
2022-08-12T15:46:34.439Z,25.35
2022-08-12T15:49:03.988Z,25.36
2022-08-12T15:51:58.831Z,25.54
2022-08-12T15:54:35.181Z,25.86
2022-08-12T15:57:07.725Z,25.83
2022-08-12T15:59:51.717Z,25.85
2022-08-12T16:02:41.892Z,25.99
2022-08-12T16:06:12.956Z,26.18
2022-08-12T16:08:18.453Z,26.09
2022-08-12T16:10:48.835Z,26.11
2022-08-12T16:13:32.262Z,26.11
2022-08-12T16:16:03.797Z,26.13
2022-08-12T16:18:35.663Z,26.18
2022-08-12T16:21:09.376Z,25.90
2022-08-12T16:23:55.755Z,25.80
2022-08-12T16:26:32.191Z,25.64
2022-08-12T16:29:14.776Z,25.38
2022-08-12T16:31:46.690Z,25.38
2022-08-12T16:34:42.166Z,25.25
2022-08-12T16:37:08.133Z,25.33
2022-08-12T16:40:01.229Z,25.35
2022-08-12T16:42:28.511Z,25.36
2022-08-12T16:44:59.618Z,25.57
2022-08-12T16:47:57.400Z,25.77
2022-08-12T16:50:31.092Z,25.77
2022-08-12T16:52:59.889Z,25.73
2022-08-12T16:55:41.981Z,24.99
2022-08-12T16:58:18.682Z,24.87
2022-08-12T17:00:57.073Z,24.61
2022-08-12T17:03:28.779Z,24.46
2022-08-12T17:05:58.632Z,24.43
2022-08-12T17:08:28.997Z,24.32
2022-08-12T17:10:59.072Z,24.16
2022-08-12T17:13:28.556Z,24.04
2022-08-12T17:16:06.141Z,23.64
2022-08-12T17:18:45.496Z,22.96
2022-08-12T17:21:41.786Z,22.43
2022-08-12T17:24:22.365Z,22.27
2022-08-12T17:26:54.124Z,22.12
2022-08-12T17:29:24.379Z,21.91
2022-08-12T17:32:14.913Z,21.79
2022-08-12T17:35:01.994Z,21.60
2022-08-12T17:37:30.167Z,21.59
2022-08-12T17:40:12.099Z,21.48
2022-08-12T17:42:47.297Z,21.19
2022-08-12T17:45:19.367Z,21.10
2022-08-12T17:48:04.637Z,20.91
2022-08-12T17:50:38.134Z,20.82
2022-08-12T17:53:10.085Z,20.57
2022-08-12T17:55:47.268Z,20.45
2022-08-12T17:58:17.754Z,20.14
2022-08-12T18:00:48.085Z,20.60
2022-08-12T18:03:58.031Z,20.57
2022-08-12T18:06:14.060Z,20.51
2022-08-12T18:08:53.469Z,20.54
2022-08-12T18:12:06.693Z,20.54
2022-08-12T18:14:31.450Z,20.50
2022-08-12T18:17:02.440Z,20.35
2022-08-12T18:20:03.790Z,20.14
2022-08-12T18:22:30.576Z,20.03
2022-08-12T18:25:03.719Z,19.96
2022-08-12T18:27:44.832Z,19.82
2022-08-12T18:30:20.362Z,19.54
2022-08-12T18:32:59.243Z,19.73
2022-08-12T18:35:46.529Z,19.69
2022-08-12T18:38:19.046Z,19.63
2022-08-12T18:41:06.081Z,19.46
2022-08-12T18:43:57.206Z,19.60
2022-08-12T18:46:29.853Z,19.48
2022-08-12T18:49:17.667Z,19.45
2022-08-12T18:51:55.213Z,19.37
2022-08-12T18:54:35.171Z,19.32
2022-08-12T18:57:16.791Z,19.22
2022-08-12T19:00:02.097Z,19.11
2022-08-12T19:02:44.574Z,19.06
2022-08-12T19:05:52.927Z,18.89
2022-08-12T19:08:16.958Z,18.75
2022-08-12T19:10:51.254Z,18.69
2022-08-12T19:13:37.767Z,18.60
2022-08-12T19:16:10.929Z,18.42
2022-08-12T19:18:45.137Z,18.42
2022-08-12T19:21:16.617Z,18.33
2022-08-12T19:24:05.808Z,18.35
2022-08-12T19:26:35.129Z,18.35
2022-08-12T19:29:05.135Z,18.31
2022-08-12T19:31:58.048Z,18.05
2022-08-12T19:37:27.213Z,18.29
2022-08-12T19:40:09.197Z,18.24
2022-08-12T19:42:53.406Z,18.10
2022-08-12T19:45:41.790Z,17.96
2022-08-12T19:48:16.529Z,17.92
2022-08-12T19:50:49.861Z,17.78
2022-08-12T19:53:19.437Z,17.77
2022-08-12T19:55:50.753Z,17.47
2022-08-12T19:58:22.907Z,17.30
2022-08-12T20:00:54.706Z,17.38
2022-08-12T20:03:40.579Z,17.34
2022-08-12T20:06:21.598Z,17.31
2022-08-12T20:08:56.426Z,17.34
2022-08-12T20:12:12.608Z,17.41
2022-08-12T20:14:19.283Z,17.35
2022-08-12T20:16:51.845Z,17.38
2022-08-12T20:19:52.344Z,17.27
2022-08-12T20:22:16.748Z,17.21
2022-08-12T20:24:54.958Z,17.21
2022-08-12T20:27:29.330Z,17.20
2022-08-12T20:30:16.256Z,17.13
2022-08-12T20:32:53.942Z,17.05
2022-08-12T20:35:24.782Z,17.04
2022-08-12T20:38:06.795Z,17.01
2022-08-12T20:40:42.336Z,16.69
2022-08-12T20:43:19.129Z,16.99
2022-08-12T20:45:57.413Z,16.99
2022-08-12T20:48:29.395Z,16.94
2022-08-12T20:51:04.399Z,16.84
2022-08-12T20:53:58.281Z,16.86
2022-08-12T20:56:30.250Z,16.56
2022-08-12T20:59:05.041Z,16.89
2022-08-12T21:01:45.908Z,16.89
2022-08-12T21:04:34.396Z,17.03
2022-08-12T21:07:09.396Z,17.02
2022-08-12T21:09:42.542Z,16.99
2022-08-12T21:12:31.595Z,16.92
2022-08-12T21:15:18.121Z,16.76
2022-08-12T21:18:11.237Z,16.72
2022-08-12T21:20:52.714Z,16.60
2022-08-12T21:23:22.948Z,16.57
2022-08-12T21:25:52.664Z,16.48
2022-08-12T21:28:31.284Z,16.47
2022-08-12T21:32:36.284Z,16.51
2022-08-12T21:34:08.668Z,16.56
2022-08-12T21:36:39.793Z,16.58
2022-08-12T21:39:18.106Z,16.57
2022-08-12T21:41:51.002Z,16.50
2022-08-12T21:44:24.150Z,16.51
2022-08-12T21:47:12.138Z,16.40
2022-08-12T21:50:04.043Z,16.19
2022-08-12T21:52:36.596Z,16.11
2022-08-12T21:55:08.297Z,16.10
2022-08-12T21:57:50.786Z,16.08
2022-08-12T22:00:21.316Z,16.10
2022-08-12T22:03:07.751Z,16.22
2022-08-12T22:05:55.025Z,16.35
2022-08-12T22:08:26.060Z,16.50
2022-08-12T22:10:56.305Z,16.49
2022-08-12T22:14:04.261Z,16.44
2022-08-12T22:16:14.557Z,16.29
2022-08-12T22:18:50.157Z,16.26
2022-08-12T22:21:22.212Z,16.24
2022-08-12T22:24:05.478Z,15.98
2022-08-12T22:26:37.452Z,16.02
2022-08-12T22:29:27.364Z,15.92
2022-08-12T22:31:56.149Z,15.99
2022-08-12T22:34:33.304Z,16.08
2022-08-12T22:37:05.737Z,16.20
2022-08-12T22:39:44.121Z,16.25
2022-08-12T22:42:30.771Z,16.16
2022-08-12T22:45:31.875Z,16.02
2022-08-12T22:48:21.963Z,15.85
2022-08-12T22:50:59.225Z,15.89
2022-08-12T22:53:36.201Z,15.83
2022-08-12T22:56:07.251Z,15.89
2022-08-12T22:58:40.601Z,15.84
2022-08-12T23:01:21.148Z,15.78
2022-08-12T23:04:00.485Z,15.82
2022-08-12T23:06:31.167Z,15.84
2022-08-12T23:09:00.857Z,15.94
2022-08-12T23:11:33.893Z,16.05
2022-08-12T23:14:09.286Z,15.91
2022-08-12T23:16:40.744Z,16.20
2022-08-12T23:19:17.596Z,16.24
2022-08-12T23:22:06.332Z,16.27
2022-08-12T23:24:53.732Z,16.12
2022-08-12T23:27:50.283Z,16.25
2022-08-12T23:30:24.922Z,16.02
2022-08-12T23:33:00.623Z,16.23
2022-08-12T23:35:58.789Z,16.27
2022-08-12T23:38:28.949Z,16.25
2022-08-12T23:41:03.630Z,16.23
2022-08-12T23:43:38.967Z,16.16
2022-08-12T23:46:10.543Z,16.16
2022-08-12T23:48:38.846Z,16.09
2022-08-12T23:51:23.655Z,16.06
2022-08-12T23:53:55.352Z,15.98
2022-08-12T23:56:25.921Z,15.96
2022-08-12T23:58:57.564Z,15.88
